Time;durP1;ratioP1;P1;durP2;ratioP2;P2;SDS_P1;SDS_P2;PMS_P1;PMS_P2;Temp;Humidity;BMP_temperature;BMP_pressure;BME280_temperature;BME280_humidity;BME280_pressure;Samples;Min_cycle;Max_cycle;Signal;HPM_P1;HPM_P2
2022/12/07 00:01:40;;;;;;;0.03;0.03;;;4.30;99.90;;;;;;5065228;28;20180;-79
2022/12/07 00:04:07;;;;;;;0.10;0.10;;;4.30;99.90;;;;;;5083483;28;20185;-79
2022/12/07 00:06:40;;;;;;;0.10;0.10;;;4.10;99.90;;;;;;5083085;28;20200;-80
2022/12/07 00:09:09;;;;;;;0.10;0.10;;;4.10;99.90;;;;;;5063770;28;20185;-79
2022/12/07 00:11:35;;;;;;;0.00;0.00;;;4.20;99.90;;;;;;5065186;28;20214;-79
2022/12/07 00:14:04;;;;;;;0.00;0.00;;;4.40;99.90;;;;;;5065997;28;20211;-80
2022/12/07 00:16:31;;;;;;;0.10;0.10;;;4.50;99.90;;;;;;5065317;28;20540;-79
2022/12/07 00:18:58;;;;;;;0.00;0.00;;;4.50;99.90;;;;;;5066554;28;20218;-79
2022/12/07 00:21:26;;;;;;;0.00;0.00;;;4.50;99.90;;;;;;5070505;28;20181;-79
2022/12/07 00:23:53;;;;;;;0.10;0.10;;;4.50;99.90;;;;;;5069690;28;20180;-79
2022/12/07 00:26:21;;;;;;;0.10;0.10;;;4.50;99.90;;;;;;5071037;28;20196;-79
2022/12/07 00:28:48;;;;;;;0.10;0.10;;;4.50;99.90;;;;;;5071311;28;20455;-79
2022/12/07 00:31:16;;;;;;;0.10;0.10;;;4.40;99.90;;;;;;5070947;28;20191;-79
2022/12/07 00:33:42;;;;;;;0.10;0.10;;;4.40;99.90;;;;;;5069732;28;20245;-79
2022/12/07 00:36:10;;;;;;;0.00;0.00;;;4.40;99.90;;;;;;5069566;28;20216;-80
2022/12/07 00:38:38;;;;;;;0.00;0.00;;;4.40;99.90;;;;;;5069271;28;20215;-79
2022/12/07 00:41:12;;;;;;;0.00;0.00;;;4.40;99.90;;;;;;5069540;28;20185;-79
2022/12/07 00:43:39;;;;;;;0.07;0.07;;;4.30;99.90;;;;;;5070535;28;20177;-79
2022/12/07 00:46:05;;;;;;;0.00;0.00;;;4.20;99.90;;;;;;5085687;28;20214;-79
2022/12/07 00:48:31;;;;;;;0.00;0.00;;;4.10;99.90;;;;;;5069250;28;20190;-79
2022/12/07 00:50:57;;;;;;;0.10;0.10;;;4.00;99.90;;;;;;5070508;28;20909;-79
2022/12/07 00:53:23;;;;;;;0.00;0.00;;;3.90;99.90;;;;;;5069385;28;20629;-79
2022/12/07 00:55:48;;;;;;;0.10;0.10;;;3.90;99.90;;;;;;5069929;28;20259;-79
2022/12/07 00:58:14;;;;;;;0.10;0.10;;;3.90;99.90;;;;;;5068610;28;20201;-79
2022/12/07 01:00:41;;;;;;;0.00;0.00;;;4.00;99.90;;;;;;5070369;28;20220;-79
2022/12/07 01:03:10;;;;;;;0.10;0.10;;;4.10;99.90;;;;;;5086867;28;20185;-79
2022/12/07 01:05:35;;;;;;;0.10;0.10;;;4.10;99.90;;;;;;5069041;28;20437;-79
2022/12/07 01:08:01;;;;;;;0.00;0.00;;;4.20;99.90;;;;;;5068600;28;20187;-80
2022/12/07 01:10:30;;;;;;;0.10;0.10;;;4.00;99.90;;;;;;5068721;28;20187;-79
2022/12/07 01:12:56;;;;;;;0.10;0.10;;;4.10;99.90;;;;;;5068535;28;20237;-79
2022/12/07 01:15:21;;;;;;;0.00;0.00;;;4.10;99.90;;;;;;5068659;28;20258;-79
2022/12/07 01:17:47;;;;;;;0.00;0.00;;;4.20;99.90;;;;;;5069182;28;20209;-79
2022/12/07 01:20:13;;;;;;;0.10;0.10;;;4.20;99.90;;;;;;5069583;28;20195;-79
2022/12/07 01:22:40;;;;;;;0.10;0.10;;;4.20;99.90;;;;;;5067960;28;20645;-78
2022/12/07 01:25:07;;;;;;;0.10;0.10;;;4.30;99.90;;;;;;5069247;28;20191;-80
2022/12/07 01:27:34;;;;;;;0.10;0.10;;;4.30;99.90;;;;;;5068964;28;20276;-79
2022/12/07 01:30:00;;;;;;;0.10;0.10;;;4.30;99.90;;;;;;5070099;28;20344;-79
2022/12/07 01:32:26;;;;;;;0.00;0.00;;;4.30;99.90;;;;;;5068577;28;20255;-79
2022/12/07 01:34:51;;;;;;;0.10;0.10;;;4.30;99.90;;;;;;5069454;28;20233;-79
2022/12/07 01:37:17;;;;;;;0.03;0.03;;;4.40;99.90;;;;;;5069294;28;20692;-80
2022/12/07 01:39:43;;;;;;;0.10;0.10;;;4.40;99.90;;;;;;5068347;28;20272;-79
2022/12/07 01:42:10;;;;;;;0.00;0.00;;;4.50;99.90;;;;;;5069274;28;20183;-79
2022/12/07 01:45:13;;;;;;;0.10;0.10;;;4.50;99.90;;;;;;5068825;28;21185;-79
2022/12/07 01:47:40;;;;;;;0.10;0.10;;;4.50;99.90;;;;;;5068493;28;20272;-79
2022/12/07 01:50:06;;;;;;;0.00;0.00;;;4.60;99.90;;;;;;5068985;28;20289;-79
2022/12/07 01:52:34;;;;;;;0.10;0.10;;;4.60;99.90;;;;;;5069978;28;20188;-80
2022/12/07 01:55:04;;;;;;;0.10;0.10;;;4.60;99.90;;;;;;5084990;28;20199;-80
2022/12/07 01:57:32;;;;;;;0.10;0.10;;;4.60;99.90;;;;;;5067543;28;20204;-79
2022/12/07 01:59:58;;;;;;;0.00;0.00;;;4.30;99.90;;;;;;5067744;28;21238;-79
2022/12/07 02:02:32;;;;;;;0.00;0.00;;;4.20;99.90;;;;;;5067427;28;20187;-80
2022/12/07 02:04:59;;;;;;;0.10;0.10;;;4.00;99.90;;;;;;5068215;28;20604;-80
2022/12/07 02:07:26;;;;;;;0.10;0.10;;;4.20;99.90;;;;;;5065952;28;20203;-79
2022/12/07 02:09:52;;;;;;;0.10;0.10;;;4.20;99.90;;;;;;5066481;28;20199;-79
2022/12/07 02:12:18;;;;;;;0.00;0.00;;;4.30;99.90;;;;;;5066990;28;20192;-79
2022/12/07 02:14:44;;;;;;;0.00;0.00;;;4.30;99.90;;;;;;5066878;28;20205;-79
2022/12/07 02:17:36;;;;;;;0.10;0.10;;;4.50;99.90;;;;;;5066880;28;20212;-79
2022/12/07 02:20:14;;;;;;;0.10;0.10;;;4.40;99.90;;;;;;5067419;28;20209;-79
2022/12/07 02:23:01;;;;;;;0.10;0.10;;;4.40;99.90;;;;;;5067571;28;20290;-79
2022/12/07 02:25:58;;;;;;;0.00;0.00;;;4.40;99.90;;;;;;5065923;28;20169;-79
2022/12/07 02:28:34;;;;;;;0.07;0.07;;;4.50;99.90;;;;;;5067280;28;21285;-79
2022/12/07 02:31:08;;;;;;;0.00;0.00;;;4.60;99.90;;;;;;5066675;28;20198;-78
2022/12/07 02:33:40;;;;;;;0.00;0.00;;;4.60;99.90;;;;;;5066488;28;20182;-79
2022/12/07 02:36:19;;;;;;;0.10;0.10;;;4.60;99.90;;;;;;5067307;28;20215;-79
2022/12/07 02:38:55;;;;;;;0.10;0.10;;;4.70;99.90;;;;;;5067177;28;20211;-80
2022/12/07 02:41:33;;;;;;;0.00;0.00;;;4.70;99.90;;;;;;5065410;28;20248;-80
2022/12/07 02:44:03;;;;;;;0.10;0.10;;;4.50;99.90;;;;;;5067393;28;20184;-79
2022/12/07 02:46:42;;;;;;;0.10;0.10;;;4.60;99.90;;;;;;5066804;28;20920;-79
2022/12/07 02:49:09;;;;;;;0.10;0.10;;;4.60;99.90;;;;;;5084175;28;20215;-80
2022/12/07 02:51:39;;;;;;;0.00;0.00;;;4.40;99.90;;;;;;5066205;28;20278;-79
2022/12/07 02:54:12;;;;;;;0.10;0.10;;;4.30;99.90;;;;;;5066027;28;20783;-78
2022/12/07 02:56:43;;;;;;;0.10;0.10;;;4.30;99.90;;;;;;5065418;28;20211;-79
2022/12/07 02:59:39;;;;;;;0.10;0.10;;;4.30;99.90;;;;;;5064835;28;20219;-79
2022/12/07 03:02:26;;;;;;;0.10;0.10;;;4.30;99.90;;;;;;5067168;28;20181;-78
2022/12/07 03:04:54;;;;;;;0.10;0.10;;;4.40;99.90;;;;;;5066354;28;20257;-79
2022/12/07 03:07:39;;;;;;;0.00;0.00;;;4.60;99.90;;;;;;5066668;28;20232;-79
2022/12/07 03:10:31;;;;;;;0.10;0.10;;;4.80;99.90;;;;;;5064742;28;20213;-79
2022/12/07 03:13:17;;;;;;;0.10;0.10;;;4.90;99.90;;;;;;5065347;28;20200;-79
2022/12/07 03:16:16;;;;;;;0.00;0.00;;;5.00;99.90;;;;;;5065794;28;20181;-79
2022/12/07 03:18:45;;;;;;;0.10;0.10;;;5.00;99.90;;;;;;5066594;28;20212;-80
2022/12/07 03:21:16;;;;;;;0.10;0.10;;;5.00;99.90;;;;;;5066985;28;20190;-79
2022/12/07 03:23:48;;;;;;;0.10;0.10;;;5.00;99.90;;;;;;5067485;28;20844;-80
2022/12/07 03:26:16;;;;;;;0.10;0.10;;;4.90;99.90;;;;;;5068519;28;20193;-79
2022/12/07 03:28:47;;;;;;;0.10;0.10;;;5.00;99.90;;;;;;5068438;28;20526;-79
2022/12/07 03:31:23;;;;;;;0.10;0.10;;;5.00;99.90;;;;;;5066480;28;20187;-79
2022/12/07 03:33:55;;;;;;;0.10;0.10;;;5.00;99.90;;;;;;5083606;28;21033;-79
2022/12/07 03:36:34;;;;;;;0.00;0.00;;;5.00;99.90;;;;;;5068199;28;20306;-79
2022/12/07 03:39:15;;;;;;;0.10;0.10;;;5.00;99.90;;;;;;5068494;28;20250;-79
2022/12/07 03:41:41;;;;;;;0.10;0.10;;;5.00;99.90;;;;;;5067036;28;20602;-79
2022/12/07 03:44:07;;;;;;;0.10;0.10;;;4.90;99.90;;;;;;5068278;28;20185;-79
2022/12/07 03:47:02;;;;;;;0.10;0.10;;;4.90;99.90;;;;;;5069871;28;20201;-79
2022/12/07 03:49:30;;;;;;;0.00;0.00;;;4.90;99.90;;;;;;5067970;28;20205;-79
2022/12/07 03:52:03;;;;;;;0.10;0.10;;;5.00;99.90;;;;;;5065219;28;20195;-78
2022/12/07 03:54:48;;;;;;;0.03;0.03;;;5.00;99.90;;;;;;5065951;28;20183;-79
2022/12/07 03:57:14;;;;;;;0.10;0.10;;;5.00;99.90;;;;;;5066455;28;20206;-79
2022/12/07 03:59:41;;;;;;;0.00;0.00;;;5.00;99.90;;;;;;5067124;28;20201;-79
2022/12/07 04:02:07;;;;;;;0.03;0.03;;;5.00;99.90;;;;;;5066221;28;20231;-79
2022/12/07 04:04:33;;;;;;;0.00;0.00;;;5.00;99.90;;;;;;5066936;28;20223;-80
2022/12/07 04:06:59;;;;;;;0.10;0.10;;;5.10;99.90;;;;;;5065343;28;20214;-80
2022/12/07 04:09:25;;;;;;;0.00;0.00;;;5.10;99.90;;;;;;5065399;28;20187;-79
2022/12/07 04:11:51;;;;;;;0.00;0.00;;;5.10;99.90;;;;;;5066896;28;20181;-79
2022/12/07 04:14:19;;;;;;;0.10;0.10;;;5.10;99.90;;;;;;5065812;28;20193;-79
2022/12/07 04:16:51;;;;;;;0.00;0.00;;;5.00;99.90;;;;;;5065822;28;20680;-79
2022/12/07 04:19:18;;;;;;;0.10;0.10;;;5.10;99.90;;;;;;5064771;28;20610;-80
2022/12/07 04:21:44;;;;;;;0.10;0.10;;;5.10;99.90;;;;;;5064258;28;20180;-80
2022/12/07 04:24:11;;;;;;;0.00;0.00;;;5.10;99.90;;;;;;5065545;28;20195;-80
2022/12/07 04:26:36;;;;;;;0.00;0.00;;;4.90;99.90;;;;;;5064630;28;20200;-79
2022/12/07 04:29:02;;;;;;;0.10;0.10;;;5.00;99.90;;;;;;5065446;28;20277;-79
2022/12/07 04:31:27;;;;;;;0.10;0.10;;;5.00;99.90;;;;;;5065354;28;20274;-79
2022/12/07 04:33:53;;;;;;;0.10;0.10;;;5.00;99.90;;;;;;5066032;28;20216;-79
2022/12/07 04:36:20;;;;;;;0.10;0.10;;;5.10;99.90;;;;;;5066610;28;20204;-80
2022/12/07 04:38:46;;;;;;;0.10;0.10;;;5.10;99.90;;;;;;5067127;28;20605;-80
2022/12/07 04:41:11;;;;;;;0.10;0.10;;;5.10;99.90;;;;;;5080029;28;20219;-79
2022/12/07 04:43:37;;;;;;;0.10;0.10;;;5.20;99.90;;;;;;5061374;28;20185;-80
2022/12/07 04:46:04;;;;;;;0.10;0.10;;;5.30;99.90;;;;;;5061018;28;21463;-80
2022/12/07 04:48:30;;;;;;;0.10;0.10;;;5.20;99.90;;;;;;5065626;28;20185;-80
2022/12/07 04:50:56;;;;;;;0.10;0.10;;;5.30;99.90;;;;;;5067006;28;20264;-79
2022/12/07 04:53:22;;;;;;;0.10;0.10;;;5.40;99.90;;;;;;5065823;28;20182;-79
2022/12/07 04:55:48;;;;;;;0.10;0.10;;;5.40;99.90;;;;;;5067529;28;20226;-80
2022/12/07 04:58:14;;;;;;;0.10;0.10;;;5.40;99.90;;;;;;5066053;28;20217;-79
2022/12/07 05:00:40;;;;;;;0.10;0.10;;;5.50;99.90;;;;;;5065354;28;20813;-80
2022/12/07 05:03:05;;;;;;;0.10;0.10;;;5.40;99.90;;;;;;5066822;28;20601;-79
2022/12/07 05:05:31;;;;;;;0.10;0.10;;;5.50;99.90;;;;;;5065424;28;20238;-80
2022/12/07 05:07:57;;;;;;;0.10;0.10;;;5.60;99.90;;;;;;5070845;28;21358;-79
2022/12/07 05:10:23;;;;;;;0.10;0.10;;;5.50;99.90;;;;;;5068050;28;20522;-79
2022/12/07 05:12:48;;;;;;;0.10;0.10;;;5.60;99.90;;;;;;5067879;28;21103;-79
2022/12/07 05:15:14;;;;;;;0.10;0.10;;;5.60;99.90;;;;;;5069230;28;20169;-79
2022/12/07 05:17:40;;;;;;;0.10;0.10;;;5.70;99.90;;;;;;5068097;28;20197;-79
2022/12/07 05:20:06;;;;;;;0.00;0.00;;;5.70;99.90;;;;;;5068653;28;20216;-79
2022/12/07 05:22:32;;;;;;;0.10;0.10;;;5.70;99.90;;;;;;5068658;28;20173;-79
2022/12/07 05:24:58;;;;;;;0.10;0.10;;;5.80;99.90;;;;;;5068206;28;20203;-79
2022/12/07 05:27:23;;;;;;;0.10;0.10;;;5.80;99.90;;;;;;5065855;28;20298;-79
2022/12/07 05:29:52;;;;;;;0.10;0.10;;;5.70;99.90;;;;;;5067575;28;20181;-79
2022/12/07 05:32:18;;;;;;;0.10;0.10;;;5.80;99.90;;;;;;5066873;28;20214;-80
2022/12/07 05:34:43;;;;;;;0.00;0.00;;;5.80;99.90;;;;;;5069246;28;20240;-79
2022/12/07 05:37:09;;;;;;;0.10;0.10;;;5.90;99.90;;;;;;5068960;28;20216;-79
2022/12/07 05:39:35;;;;;;;0.10;0.10;;;5.80;99.90;;;;;;5068620;28;20238;-79
2022/12/07 05:42:12;;;;;;;0.10;0.10;;;5.80;99.90;;;;;;5083446;28;20638;-79
2022/12/07 05:44:43;;;;;;;0.10;0.10;;;5.90;99.90;;;;;;5068680;28;20219;-80
2022/12/07 05:47:09;;;;;;;0.10;0.10;;;5.80;99.90;;;;;;5069916;28;20208;-80
2022/12/07 05:49:35;;;;;;;0.10;0.10;;;5.80;99.90;;;;;;5071292;28;20189;-80
2022/12/07 05:52:01;;;;;;;0.10;0.10;;;5.80;99.90;;;;;;5071377;28;20192;-79
2022/12/07 05:54:27;;;;;;;0.10;0.10;;;5.80;99.90;;;;;;5084371;28;20227;-80
2022/12/07 05:56:53;;;;;;;0.10;0.10;;;5.80;99.90;;;;;;5068100;28;20682;-79
2022/12/07 05:59:25;;;;;;;0.10;0.10;;;5.80;99.90;;;;;;5068663;28;20250;-79
2022/12/07 06:02:03;;;;;;;0.10;0.10;;;5.80;99.90;;;;;;5067953;28;20273;-81
2022/12/07 06:04:31;;;;;;;0.10;0.10;;;5.80;99.90;;;;;;5083178;28;20180;-80
2022/12/07 06:06:58;;;;;;;0.10;0.10;;;5.80;99.90;;;;;;5066632;28;20242;-79
2022/12/07 06:09:25;;;;;;;0.10;0.10;;;5.70;99.90;;;;;;5082971;28;20276;-79
2022/12/07 06:14:34;;;;;;;0.00;0.00;;;5.70;99.90;;;;;;5067765;28;20212;-80
2022/12/07 06:17:00;;;;;;;0.10;0.10;;;5.70;99.90;;;;;;5066269;28;20213;-80
2022/12/07 06:19:25;;;;;;;0.10;0.10;;;5.70;99.90;;;;;;5066266;28;20270;-79
2022/12/07 06:21:51;;;;;;;0.10;0.10;;;5.70;99.90;;;;;;5068082;28;20188;-80
2022/12/07 06:24:17;;;;;;;0.10;0.10;;;5.70;99.90;;;;;;5065168;28;20858;-80
2022/12/07 06:26:43;;;;;;;0.10;0.10;;;5.70;99.90;;;;;;5063861;28;20205;-80
2022/12/07 06:29:09;;;;;;;0.10;0.10;;;5.60;99.90;;;;;;5066720;28;20211;-79
2022/12/07 06:31:36;;;;;;;0.10;0.10;;;5.60;99.90;;;;;;5066117;28;20188;-80
2022/12/07 06:34:05;;;;;;;0.10;0.10;;;5.60;99.90;;;;;;5065185;28;20478;-79
2022/12/07 06:36:31;;;;;;;0.10;0.10;;;5.60;99.90;;;;;;5082886;28;20204;-79
2022/12/07 06:38:56;;;;;;;0.10;0.10;;;5.50;99.90;;;;;;5067595;28;20234;-78
2022/12/07 06:41:23;;;;;;;0.10;0.10;;;5.50;99.90;;;;;;5068845;28;20228;-79
2022/12/07 06:43:49;;;;;;;0.10;0.10;;;5.40;99.90;;;;;;5067264;28;20223;-79
2022/12/07 06:46:15;;;;;;;0.10;0.10;;;5.20;99.90;;;;;;5067033;28;20680;-80
2022/12/07 06:48:42;;;;;;;0.10;0.10;;;5.10;99.90;;;;;;5067244;28;20296;-79
2022/12/07 06:51:08;;;;;;;0.10;0.10;;;5.00;99.90;;;;;;5066526;28;20242;-79
2022/12/07 06:53:34;;;;;;;0.00;0.00;;;5.00;99.90;;;;;;5066372;28;20778;-79
2022/12/07 06:55:59;;;;;;;0.00;0.00;;;5.00;99.90;;;;;;5066813;28;20251;-79
2022/12/07 06:58:25;;;;;;;0.10;0.10;;;5.10;99.90;;;;;;5067176;28;20204;-79
2022/12/07 07:00:50;;;;;;;0.10;0.10;;;5.10;99.90;;;;;;5066793;28;20191;-79
2022/12/07 07:03:16;;;;;;;0.10;0.10;;;5.20;99.90;;;;;;5066829;28;20216;-79
2022/12/07 07:05:43;;;;;;;0.10;0.10;;;5.20;99.90;;;;;;5066192;28;20274;-80
2022/12/07 07:08:09;;;;;;;0.10;0.10;;;5.20;99.90;;;;;;5064085;28;20566;-80
2022/12/07 07:10:35;;;;;;;0.10;0.10;;;5.20;99.90;;;;;;5065105;28;20280;-79
2022/12/07 07:13:01;;;;;;;0.10;0.10;;;5.20;99.90;;;;;;5083699;28;20201;-79
2022/12/07 07:15:28;;;;;;;0.10;0.10;;;5.20;99.90;;;;;;5065238;28;20319;-79
2022/12/07 07:17:54;;;;;;;0.10;0.10;;;5.20;99.90;;;;;;5065602;28;20275;-79
2022/12/07 07:20:19;;;;;;;0.10;0.10;;;5.20;99.90;;;;;;5064503;28;20200;-80
2022/12/07 07:22:45;;;;;;;0.10;0.10;;;5.20;99.90;;;;;;5064928;28;20185;-80
2022/12/07 07:25:10;;;;;;;0.10;0.10;;;5.20;99.90;;;;;;5064707;28;20182;-80
2022/12/07 07:27:36;;;;;;;0.10;0.10;;;5.10;99.90;;;;;;5066370;28;20219;-79
2022/12/07 07:30:02;;;;;;;0.10;0.10;;;5.00;99.90;;;;;;5067127;28;20203;-79
2022/12/07 07:32:29;;;;;;;0.10;0.10;;;4.90;99.90;;;;;;5064331;28;21220;-80
2022/12/07 07:34:55;;;;;;;0.10;0.10;;;4.90;99.90;;;;;;5065405;28;20200;-79
2022/12/07 07:37:20;;;;;;;0.00;0.00;;;4.90;99.90;;;;;;5066331;28;20211;-79
2022/12/07 07:39:46;;;;;;;0.10;0.10;;;4.90;99.90;;;;;;5067266;28;20224;-81
2022/12/07 07:42:11;;;;;;;0.10;0.10;;;4.90;99.90;;;;;;5070654;28;20204;-82
2022/12/07 07:44:37;;;;;;;0.10;0.10;;;4.90;99.90;;;;;;5069449;28;20207;-82
2022/12/07 07:47:02;;;;;;;0.10;0.10;;;5.00;99.90;;;;;;5069695;28;20230;-82
2022/12/07 07:49:28;;;;;;;0.10;0.10;;;4.90;99.90;;;;;;5070086;28;20187;-81
2022/12/07 07:51:54;;;;;;;0.10;0.10;;;4.90;99.90;;;;;;5065409;28;20263;-79
2022/12/07 07:54:19;;;;;;;0.10;0.10;;;5.00;99.90;;;;;;5067010;28;20280;-80
2022/12/07 07:56:45;;;;;;;0.10;0.10;;;5.10;99.90;;;;;;5069912;28;20686;-79
2022/12/07 07:59:10;;;;;;;0.10;0.10;;;5.10;99.90;;;;;;5070035;28;20736;-80
2022/12/07 08:01:36;;;;;;;0.00;0.00;;;5.20;99.90;;;;;;5069368;28;20294;-80
2022/12/07 08:04:01;;;;;;;0.07;0.07;;;5.20;99.90;;;;;;5071229;28;20728;-80
2022/12/07 08:06:27;;;;;;;0.10;0.10;;;5.30;99.90;;;;;;5070200;28;20664;-80
2022/12/07 08:08:52;;;;;;;0.10;0.10;;;5.40;99.90;;;;;;5069600;28;20200;-80
2022/12/07 08:11:19;;;;;;;0.10;0.10;;;5.40;99.90;;;;;;5071900;28;20190;-80
2022/12/07 08:13:49;;;;;;;0.10;0.10;;;5.50;99.90;;;;;;5067086;28;20206;-80
2022/12/07 08:16:14;;;;;;;0.10;0.10;;;5.50;99.90;;;;;;5066731;28;20251;-80
2022/12/07 08:18:41;;;;;;;0.10;0.10;;;5.60;99.90;;;;;;5066902;28;20232;-80
2022/12/07 08:21:09;;;;;;;0.10;0.10;;;5.60;99.90;;;;;;5067666;28;20243;-80
2022/12/07 08:23:35;;;;;;;0.10;0.10;;;5.70;99.90;;;;;;5066106;28;20355;-78
2022/12/07 08:26:02;;;;;;;0.10;0.10;;;5.60;99.90;;;;;;5067092;28;20855;-80
2022/12/07 08:28:29;;;;;;;0.10;0.10;;;5.70;99.90;;;;;;5067593;28;20271;-80
2022/12/07 08:31:06;;;;;;;0.10;0.10;;;5.70;99.90;;;;;;5066529;28;20296;-80
2022/12/07 08:33:32;;;;;;;0.10;0.10;;;5.70;99.90;;;;;;5064705;28;20176;-80
2022/12/07 08:36:07;;;;;;;0.10;0.10;;;5.70;99.90;;;;;;5064886;28;20229;-80
2022/12/07 08:38:34;;;;;;;0.10;0.10;;;5.70;99.90;;;;;;5083074;28;20203;-81
2022/12/07 08:41:00;;;;;;;0.10;0.10;;;5.80;99.90;;;;;;5068230;28;20191;-80
2022/12/07 08:43:26;;;;;;;0.03;0.03;;;6.30;99.90;;;;;;5070385;28;20177;-81
2022/12/07 08:46:19;;;;;;;0.10;0.10;;;6.40;99.90;;;;;;5067479;28;20745;-81
2022/12/07 08:48:52;;;;;;;0.07;0.07;;;6.30;99.90;;;;;;5070972;28;20231;-81
2022/12/07 08:51:19;;;;;;;0.10;0.10;;;6.30;99.90;;;;;;5069782;28;20214;-78
2022/12/07 08:53:45;;;;;;;0.10;0.10;;;6.40;99.90;;;;;;5068812;28;20593;-80
2022/12/07 08:56:11;;;;;;;0.07;0.07;;;6.50;99.90;;;;;;5071140;28;20209;-80
2022/12/07 08:58:38;;;;;;;0.00;0.00;;;6.60;99.90;;;;;;5071992;28;20205;-80
2022/12/07 09:01:04;;;;;;;0.10;0.10;;;6.50;99.90;;;;;;5072119;28;20191;-80
2022/12/07 09:03:30;;;;;;;0.10;0.10;;;6.70;99.90;;;;;;5072641;28;20186;-80
2022/12/07 09:05:57;;;;;;;0.10;0.10;;;6.90;99.90;;;;;;5072355;28;20343;-80
2022/12/07 09:08:27;;;;;;;0.00;0.00;;;7.10;99.90;;;;;;5071819;28;20270;-80
2022/12/07 09:10:53;;;;;;;0.10;0.10;;;6.90;99.90;;;;;;5070254;28;20288;-79
2022/12/07 09:13:18;;;;;;;0.00;0.00;;;6.80;99.90;;;;;;5073037;28;20241;-80
2022/12/07 09:15:44;;;;;;;0.10;0.10;;;6.60;99.90;;;;;;5070834;28;20758;-80
2022/12/07 09:18:09;;;;;;;0.07;0.07;;;6.60;99.90;;;;;;5071351;28;20915;-81
2022/12/07 09:20:35;;;;;;;0.10;0.10;;;6.80;99.90;;;;;;5072794;28;20177;-81
2022/12/07 09:23:00;;;;;;;0.10;0.10;;;7.00;99.90;;;;;;5070208;28;20185;-80
2022/12/07 09:25:26;;;;;;;0.10;0.10;;;7.20;99.90;;;;;;5071620;28;20216;-80
2022/12/07 09:27:56;;;;;;;0.10;0.10;;;7.50;99.90;;;;;;5072663;28;20271;-81
2022/12/07 09:30:23;;;;;;;0.20;0.20;;;7.70;99.90;;;;;;5068520;28;20181;-81
2022/12/07 09:32:49;;;;;;;0.00;0.00;;;7.80;99.90;;;;;;5066037;28;20178;-81
2022/12/07 09:35:15;;;;;;;0.10;0.10;;;7.80;99.90;;;;;;5064304;28;20181;-79
2022/12/07 09:37:40;;;;;;;0.10;0.10;;;7.90;99.90;;;;;;5063871;28;20607;-80
2022/12/07 09:40:06;;;;;;;0.10;0.10;;;8.10;99.90;;;;;;5063525;28;20275;-80
2022/12/07 09:42:39;;;;;;;0.10;0.10;;;8.30;99.90;;;;;;5063714;28;20678;-81
2022/12/07 09:45:07;;;;;;;0.10;0.10;;;8.30;99.90;;;;;;5064306;28;20186;-81
2022/12/07 09:47:36;;;;;;;0.10;0.10;;;8.30;99.90;;;;;;5063480;28;20586;-83
2022/12/07 09:50:12;;;;;;;0.10;0.10;;;8.10;99.90;;;;;;5081972;28;20706;-83
2022/12/07 09:52:38;;;;;;;0.10;0.10;;;8.00;99.90;;;;;;5063629;28;20262;-83
2022/12/07 09:55:08;;;;;;;0.10;0.10;;;7.90;99.90;;;;;;5065091;28;20206;-81
2022/12/07 09:57:36;;;;;;;0.10;0.10;;;7.90;99.90;;;;;;5065270;28;20243;-81
2022/12/07 10:00:11;;;;;;;0.10;0.10;;;8.10;99.90;;;;;;5065044;28;20208;-83
2022/12/07 10:02:41;;;;;;;0.10;0.10;;;8.30;99.90;;;;;;5066437;28;20212;-83
2022/12/07 10:05:18;;;;;;;0.10;0.10;;;8.50;99.90;;;;;;5064322;28;20183;-83
2022/12/07 10:07:44;;;;;;;0.10;0.10;;;8.60;99.90;;;;;;5064917;28;20282;-83
2022/12/07 10:10:18;;;;;;;0.10;0.10;;;8.50;99.90;;;;;;5065761;28;20686;-83
2022/12/07 10:12:58;;;;;;;0.10;0.10;;;8.60;99.90;;;;;;5079912;28;20199;-84
2022/12/07 10:15:45;;;;;;;0.10;0.10;;;8.70;99.90;;;;;;5062834;28;20201;-84
2022/12/07 10:18:41;;;;;;;0.10;0.10;;;8.70;99.90;;;;;;5049819;28;20192;-81
2022/12/07 10:21:17;;;;;;;0.10;0.10;;;8.50;99.90;;;;;;5061334;28;20201;-83
2022/12/07 10:24:14;;;;;;;0.10;0.10;;;8.40;99.90;;;;;;5081913;28;20181;-81
2022/12/07 10:26:52;;;;;;;1.07;1.07;;;8.40;99.90;;;;;;5064043;28;20345;-81
2022/12/07 10:29:23;;;;;;;0.03;0.03;;;8.20;99.90;;;;;;5067047;28;20293;-81
2022/12/07 10:31:57;;;;;;;0.07;0.07;;;8.30;99.90;;;;;;5064896;28;20191;-81
2022/12/07 10:34:26;;;;;;;0.00;0.00;;;8.30;99.90;;;;;;5061957;28;20185;-81
2022/12/07 10:36:53;;;;;;;0.10;0.10;;;8.30;99.90;;;;;;5065111;28;20210;-82
2022/12/07 10:39:21;;;;;;;0.10;0.10;;;8.40;99.90;;;;;;5065358;28;20209;-80
2022/12/07 10:41:57;;;;;;;0.07;0.07;;;8.50;99.90;;;;;;5080619;28;20187;-81
2022/12/07 10:44:26;;;;;;;0.10;0.10;;;8.60;99.90;;;;;;5060677;28;20186;-81
2022/12/07 10:47:09;;;;;;;0.10;0.10;;;8.60;99.90;;;;;;5064395;28;20204;-81
2022/12/07 10:49:53;;;;;;;0.10;0.10;;;8.70;99.90;;;;;;5064225;28;20196;-81
2022/12/07 10:52:35;;;;;;;0.10;0.10;;;8.90;99.90;;;;;;5062977;28;20527;-81
2022/12/07 10:55:20;;;;;;;0.10;0.10;;;9.10;99.90;;;;;;5063782;28;20185;-81
2022/12/07 10:58:00;;;;;;;0.10;0.10;;;9.20;99.90;;;;;;5064426;28;20267;-81
2022/12/07 11:00:32;;;;;;;0.07;0.07;;;9.30;99.90;;;;;;5063854;28;20699;-81
2022/12/07 11:03:36;;;;;;;0.00;0.00;;;9.00;99.90;;;;;;5061621;28;20186;-81
2022/12/07 11:06:05;;;;;;;0.10;0.10;;;8.80;99.90;;;;;;5063573;28;20269;-81
2022/12/07 11:08:59;;;;;;;0.07;0.07;;;8.90;99.90;;;;;;5061102;28;20318;-80
2022/12/07 11:11:50;;;;;;;0.10;0.10;;;8.80;99.90;;;;;;5062929;28;20221;-80
2022/12/07 11:14:48;;;;;;;0.10;0.10;;;8.50;99.90;;;;;;5063946;28;20206;-81
2022/12/07 11:17:17;;;;;;;0.10;0.10;;;8.50;99.90;;;;;;5063092;28;20208;-80
2022/12/07 11:20:01;;;;;;;0.10;0.10;;;8.20;99.90;;;;;;5063685;28;20461;-79
2022/12/07 11:22:40;;;;;;;0.10;0.10;;;8.50;99.90;;;;;;5063519;28;20189;-80
2022/12/07 11:25:29;;;;;;;0.10;0.10;;;8.50;99.90;;;;;;5063970;28;20972;-82
2022/12/07 11:28:22;;;;;;;0.10;0.10;;;8.80;99.90;;;;;;5066059;28;20189;-81
2022/12/07 11:31:03;;;;;;;0.10;0.10;;;9.20;99.90;;;;;;5079146;28;20197;-81
2022/12/07 11:33:35;;;;;;;0.10;0.10;;;9.40;99.90;;;;;;5063285;28;20268;-81
2022/12/07 11:36:38;;;;;;;0.10;0.10;;;9.40;99.90;;;;;;5067100;28;20250;-80
2022/12/07 11:39:13;;;;;;;0.10;0.10;;;9.40;99.90;;;;;;5064769;28;20227;-81
2022/12/07 11:41:42;;;;;;;0.10;0.10;;;9.30;99.90;;;;;;5062259;28;20633;-81
2022/12/07 11:44:36;;;;;;;0.10;0.10;;;9.50;99.90;;;;;;5062232;28;20537;-81
2022/12/07 11:47:20;;;;;;;0.10;0.10;;;9.70;99.90;;;;;;5064371;28;20291;-81
2022/12/07 11:49:54;;;;;;;0.10;0.10;;;9.90;99.90;;;;;;5063671;28;20524;-80
2022/12/07 11:52:47;;;;;;;0.10;0.10;;;9.60;99.90;;;;;;5062235;28;20184;-80
2022/12/07 11:55:32;;;;;;;0.10;0.10;;;10.00;99.90;;;;;;5056857;28;20198;-80
2022/12/07 11:58:11;;;;;;;0.10;0.10;;;10.10;99.90;;;;;;5062975;28;20198;-80
2022/12/07 12:00:37;;;;;;;0.10;0.10;;;10.30;99.90;;;;;;5061521;28;20190;-80
2022/12/07 12:03:15;;;;;;;0.00;0.00;;;10.30;99.90;;;;;;5065118;28;20246;-80
2022/12/07 12:05:40;;;;;;;0.03;0.03;;;10.20;99.90;;;;;;5080642;28;20182;-81
2022/12/07 12:08:21;;;;;;;0.00;0.00;;;10.20;99.90;;;;;;5065063;28;20194;-80
2022/12/07 12:11:13;;;;;;;0.10;0.10;;;10.10;99.90;;;;;;5061711;28;20214;-81
2022/12/07 12:14:04;;;;;;;0.10;0.10;;;9.80;99.90;;;;;;5062677;28;20194;-81
2022/12/07 12:16:54;;;;;;;0.10;0.10;;;10.10;99.90;;;;;;5065802;28;20256;-80
2022/12/07 12:19:25;;;;;;;0.10;0.10;;;10.00;99.90;;;;;;5066565;28;20204;-81
2022/12/07 12:22:00;;;;;;;0.10;0.10;;;10.00;99.90;;;;;;5068612;28;20180;-80
2022/12/07 12:24:28;;;;;;;0.10;0.10;;;10.10;99.90;;;;;;5068148;28;20180;-80
2022/12/07 12:27:09;;;;;;;0.10;0.10;;;9.90;99.90;;;;;;5068294;28;20268;-80
2022/12/07 12:29:41;;;;;;;0.10;0.10;;;9.60;99.90;;;;;;5069368;28;20178;-80
2022/12/07 12:32:16;;;;;;;0.10;0.10;;;9.70;99.90;;;;;;5068701;28;20189;-80
2022/12/07 12:34:47;;;;;;;0.10;0.10;;;9.70;99.90;;;;;;5067366;28;20186;-82
2022/12/07 12:37:36;;;;;;;0.10;0.10;;;9.70;99.90;;;;;;5068269;28;20202;-81
2022/12/07 12:40:15;;;;;;;0.10;0.10;;;9.70;99.90;;;;;;5068158;28;20203;-81
2022/12/07 12:42:58;;;;;;;0.10;0.10;;;9.40;99.90;;;;;;5070853;28;20877;-81
2022/12/07 12:45:29;;;;;;;0.10;0.10;;;9.30;99.90;;;;;;5064214;28;20271;-80
2022/12/07 12:47:59;;;;;;;0.10;0.10;;;9.50;99.90;;;;;;5067224;28;21251;-81
2022/12/07 12:50:26;;;;;;;0.10;0.10;;;9.70;99.90;;;;;;5083943;28;20220;-81
2022/12/07 12:52:59;;;;;;;0.00;0.00;;;9.80;99.90;;;;;;5067233;28;20186;-80
2022/12/07 12:56:06;;;;;;;0.10;0.10;;;9.80;99.90;;;;;;5065290;28;20252;-81
2022/12/07 12:58:35;;;;;;;0.10;0.10;;;9.50;99.90;;;;;;5065245;28;20223;-81
2022/12/07 13:01:32;;;;;;;0.10;0.10;;;9.30;99.90;;;;;;5067072;28;20562;-82
2022/12/07 13:03:58;;;;;;;0.10;0.10;;;9.30;99.90;;;;;;5064581;28;20693;-83
2022/12/07 13:06:26;;;;;;;0.10;0.10;;;9.00;99.90;;;;;;5064184;28;20211;-81
2022/12/07 13:08:55;;;;;;;0.10;0.10;;;8.50;99.90;;;;;;5064883;28;20191;-85
2022/12/07 13:11:45;;;;;;;0.10;0.10;;;8.20;99.90;;;;;;5064859;28;20238;-81
2022/12/07 13:14:48;;;;;;;0.10;0.10;;;7.90;99.90;;;;;;5068661;28;20233;-81
2022/12/07 13:17:32;;;;;;;0.10;0.10;;;7.70;99.90;;;;;;5067651;28;20220;-81
2022/12/07 13:20:03;;;;;;;0.00;0.00;;;7.60;99.90;;;;;;5067797;28;20734;-81
2022/12/07 13:22:31;;;;;;;0.10;0.10;;;7.60;99.90;;;;;;5066245;28;20181;-80